sensor_id;sensor_type;location;lat;lon;timestamp;P1;durP1;ratioP1;P2;durP2;ratioP2
5813;SDS011;2933;52.302;8.134;2024-01-07T00:03:05;12.27;;;6.40;;
5813;SDS011;2933;52.302;8.134;2024-01-07T00:08:08;12.90;;;5.90;;
5813;SDS011;2933;52.302;8.134;2024-01-07T00:13:09;10.77;;;6.20;;
5813;SDS011;2933;52.302;8.134;2024-01-07T00:18:11;10.23;;;5.30;;
5813;SDS011;2933;52.302;8.134;2024-01-07T00:23:14;7.80;;;4.67;;
5813;SDS011;2933;52.302;8.134;2024-01-07T00:28:16;7.67;;;5.10;;
5813;SDS011;2933;52.302;8.134;2024-01-07T00:33:17;9.10;;;4.77;;
5813;SDS011;2933;52.302;8.134;2024-01-07T00:38:20;8.63;;;5.60;;
5813;SDS011;2933;52.302;8.134;2024-01-07T00:43:22;9.27;;;6.07;;
5813;SDS011;2933;52.302;8.134;2024-01-07T00:48:24;13.00;;;5.87;;
5813;SDS011;2933;52.302;8.134;2024-01-07T00:53:27;8.83;;;5.80;;
5813;SDS011;2933;52.302;8.134;2024-01-07T00:58:28;14.13;;;5.83;;
5813;SDS011;2933;52.302;8.134;2024-01-07T01:03:30;13.77;;;6.80;;
5813;SDS011;2933;52.302;8.134;2024-01-07T01:08:33;7.33;;;5.27;;
5813;SDS011;2933;52.302;8.134;2024-01-07T01:13:34;13.00;;;5.77;;
5813;SDS011;2933;52.302;8.134;2024-01-07T01:18:36;11.97;;;4.93;;
5813;SDS011;2933;52.302;8.134;2024-01-07T01:23:39;7.20;;;5.33;;
5813;SDS011;2933;52.302;8.134;2024-01-07T01:28:41;8.60;;;6.00;;
5813;SDS011;2933;52.302;8.134;2024-01-07T01:33:42;11.27;;;6.20;;
5813;SDS011;2933;52.302;8.134;2024-01-07T01:38:45;9.30;;;5.43;;
5813;SDS011;2933;52.302;8.134;2024-01-07T01:43:48;16.13;;;6.70;;
5813;SDS011;2933;52.302;8.134;2024-01-07T01:48:50;13.13;;;6.90;;
5813;SDS011;2933;52.302;8.134;2024-01-07T01:53:53;13.33;;;6.40;;
5813;SDS011;2933;52.302;8.134;2024-01-07T01:58:57;12.43;;;6.67;;
5813;SDS011;2933;52.302;8.134;2024-01-07T02:04:00;9.43;;;5.80;;
5813;SDS011;2933;52.302;8.134;2024-01-07T02:09:03;13.90;;;6.47;;
5813;SDS011;2933;52.302;8.134;2024-01-07T02:14:05;12.23;;;7.10;;
5813;SDS011;2933;52.302;8.134;2024-01-07T02:19:06;17.50;;;6.50;;
5813;SDS011;2933;52.302;8.134;2024-01-07T02:24:16;11.73;;;5.97;;
5813;SDS011;2933;52.302;8.134;2024-01-07T02:29:18;10.80;;;5.70;;
5813;SDS011;2933;52.302;8.134;2024-01-07T02:34:19;12.80;;;5.87;;
5813;SDS011;2933;52.302;8.134;2024-01-07T02:39:23;10.00;;;5.67;;
5813;SDS011;2933;52.302;8.134;2024-01-07T02:44:24;13.13;;;5.90;;
5813;SDS011;2933;52.302;8.134;2024-01-07T02:49:26;11.37;;;6.43;;
5813;SDS011;2933;52.302;8.134;2024-01-07T02:54:29;16.00;;;6.40;;
5813;SDS011;2933;52.302;8.134;2024-01-07T02:59:30;7.03;;;5.83;;
5813;SDS011;2933;52.302;8.134;2024-01-07T03:04:32;11.50;;;6.10;;
5813;SDS011;2933;52.302;8.134;2024-01-07T03:09:35;8.17;;;5.47;;
5813;SDS011;2933;52.302;8.134;2024-01-07T03:14:36;9.53;;;5.53;;
5813;SDS011;2933;52.302;8.134;2024-01-07T03:19:38;14.13;;;6.60;;
5813;SDS011;2933;52.302;8.134;2024-01-07T03:24:42;9.10;;;5.70;;
5813;SDS011;2933;52.302;8.134;2024-01-07T03:29:44;10.77;;;6.47;;
5813;SDS011;2933;52.302;8.134;2024-01-07T03:34:45;11.50;;;6.20;;
5813;SDS011;2933;52.302;8.134;2024-01-07T03:39:48;8.60;;;5.77;;
5813;SDS011;2933;52.302;8.134;2024-01-07T03:44:50;10.73;;;5.97;;
5813;SDS011;2933;52.302;8.134;2024-01-07T03:49:52;12.40;;;5.27;;
5813;SDS011;2933;52.302;8.134;2024-01-07T03:54:55;8.07;;;6.07;;
5813;SDS011;2933;52.302;8.134;2024-01-07T03:59:56;8.53;;;5.33;;
5813;SDS011;2933;52.302;8.134;2024-01-07T04:04:58;8.63;;;4.67;;
5813;SDS011;2933;52.302;8.134;2024-01-07T04:10:01;8.27;;;4.97;;
5813;SDS011;2933;52.302;8.134;2024-01-07T04:15:03;5.93;;;4.80;;
5813;SDS011;2933;52.302;8.134;2024-01-07T04:20:05;7.33;;;4.60;;
5813;SDS011;2933;52.302;8.134;2024-01-07T04:25:09;8.53;;;5.03;;
5813;SDS011;2933;52.302;8.134;2024-01-07T04:30:11;6.37;;;4.53;;
5813;SDS011;2933;52.302;8.134;2024-01-07T04:35:13;11.23;;;4.87;;
5813;SDS011;2933;52.302;8.134;2024-01-07T04:40:16;10.50;;;5.33;;
5813;SDS011;2933;52.302;8.134;2024-01-07T04:45:18;12.07;;;4.20;;
5813;SDS011;2933;52.302;8.134;2024-01-07T04:50:19;7.43;;;4.80;;
5813;SDS011;2933;52.302;8.134;2024-01-07T04:55:22;8.90;;;4.33;;
5813;SDS011;2933;52.302;8.134;2024-01-07T05:00:24;5.97;;;4.77;;
5813;SDS011;2933;52.302;8.134;2024-01-07T05:05:26;9.47;;;5.80;;
5813;SDS011;2933;52.302;8.134;2024-01-07T05:10:29;5.77;;;4.63;;
5813;SDS011;2933;52.302;8.134;2024-01-07T05:15:30;6.30;;;4.23;;
5813;SDS011;2933;52.302;8.134;2024-01-07T05:20:32;5.30;;;4.63;;
5813;SDS011;2933;52.302;8.134;2024-01-07T05:25:35;5.43;;;3.90;;
5813;SDS011;2933;52.302;8.134;2024-01-07T05:30:36;4.60;;;4.20;;
5813;SDS011;2933;52.302;8.134;2024-01-07T05:35:39;5.23;;;4.73;;
5813;SDS011;2933;52.302;8.134;2024-01-07T05:40:42;4.40;;;4.07;;
5813;SDS011;2933;52.302;8.134;2024-01-07T05:45:43;6.20;;;4.83;;
5813;SDS011;2933;52.302;8.134;2024-01-07T05:50:45;7.10;;;3.57;;
5813;SDS011;2933;52.302;8.134;2024-01-07T05:55:48;4.30;;;3.70;;
5813;SDS011;2933;52.302;8.134;2024-01-07T06:00:50;6.60;;;3.83;;
5813;SDS011;2933;52.302;8.134;2024-01-07T06:05:51;5.70;;;4.20;;
5813;SDS011;2933;52.302;8.134;2024-01-07T06:10:54;16.73;;;4.63;;
5813;SDS011;2933;52.302;8.134;2024-01-07T06:15:56;5.40;;;4.03;;
5813;SDS011;2933;52.302;8.134;2024-01-07T06:20:57;12.87;;;4.10;;
5813;SDS011;2933;52.302;8.134;2024-01-07T06:26:02;5.50;;;4.03;;
5813;SDS011;2933;52.302;8.134;2024-01-07T06:31:04;4.87;;;2.90;;
5813;SDS011;2933;52.302;8.134;2024-01-07T06:36:06;7.03;;;4.10;;
5813;SDS011;2933;52.302;8.134;2024-01-07T06:41:09;3.13;;;2.90;;
5813;SDS011;2933;52.302;8.134;2024-01-07T06:46:12;3.07;;;2.83;;
5813;SDS011;2933;52.302;8.134;2024-01-07T06:51:15;3.60;;;3.30;;
5813;SDS011;2933;52.302;8.134;2024-01-07T06:56:18;6.30;;;2.60;;
5813;SDS011;2933;52.302;8.134;2024-01-07T07:01:20;3.20;;;2.67;;
5813;SDS011;2933;52.302;8.134;2024-01-07T07:06:23;3.43;;;3.10;;
5813;SDS011;2933;52.302;8.134;2024-01-07T07:11:27;3.50;;;3.20;;
5813;SDS011;2933;52.302;8.134;2024-01-07T07:16:28;5.63;;;2.67;;
5813;SDS011;2933;52.302;8.134;2024-01-07T07:21:30;2.83;;;2.63;;
5813;SDS011;2933;52.302;8.134;2024-01-07T07:26:33;3.63;;;3.30;;
5813;SDS011;2933;52.302;8.134;2024-01-07T07:31:36;3.90;;;3.57;;
5813;SDS011;2933;52.302;8.134;2024-01-07T07:36:38;3.40;;;3.10;;
5813;SDS011;2933;52.302;8.134;2024-01-07T07:41:42;7.30;;;2.77;;
5813;SDS011;2933;52.302;8.134;2024-01-07T07:46:44;4.40;;;3.00;;
5813;SDS011;2933;52.302;8.134;2024-01-07T07:51:46;13.03;;;3.10;;
5813;SDS011;2933;52.302;8.134;2024-01-07T07:56:49;2.53;;;2.30;;
5813;SDS011;2933;52.302;8.134;2024-01-07T08:01:50;2.63;;;2.40;;
5813;SDS011;2933;52.302;8.134;2024-01-07T08:06:52;2.17;;;1.97;;
5813;SDS011;2933;52.302;8.134;2024-01-07T08:11:57;2.43;;;2.23;;
5813;SDS011;2933;52.302;8.134;2024-01-07T08:16:59;2.60;;;2.40;;
5813;SDS011;2933;52.302;8.134;2024-01-07T08:22:01;2.70;;;2.50;;
5813;SDS011;2933;52.302;8.134;2024-01-07T08:27:05;1.87;;;1.77;;
5813;SDS011;2933;52.302;8.134;2024-01-07T08:32:07;5.10;;;3.23;;
5813;SDS011;2933;52.302;8.134;2024-01-07T08:37:09;1.97;;;1.87;;
5813;SDS011;2933;52.302;8.134;2024-01-07T08:42:12;2.67;;;2.40;;
5813;SDS011;2933;52.302;8.134;2024-01-07T08:47:13;2.40;;;2.20;;
5813;SDS011;2933;52.302;8.134;2024-01-07T08:52:15;2.47;;;2.27;;
5813;SDS011;2933;52.302;8.134;2024-01-07T08:57:18;2.67;;;2.47;;
5813;SDS011;2933;52.302;8.134;2024-01-07T09:02:20;2.30;;;2.17;;
5813;SDS011;2933;52.302;8.134;2024-01-07T09:07:22;2.03;;;1.90;;
5813;SDS011;2933;52.302;8.134;2024-01-07T09:12:25;2.43;;;2.27;;
5813;SDS011;2933;52.302;8.134;2024-01-07T09:17:27;2.90;;;2.20;;
5813;SDS011;2933;52.302;8.134;2024-01-07T09:22:29;3.40;;;2.30;;
5813;SDS011;2933;52.302;8.134;2024-01-07T09:27:32;3.63;;;2.67;;
5813;SDS011;2933;52.302;8.134;2024-01-07T09:32:34;6.40;;;2.10;;
5813;SDS011;2933;52.302;8.134;2024-01-07T09:37:36;2.30;;;2.10;;
5813;SDS011;2933;52.302;8.134;2024-01-07T09:42:39;1.90;;;1.80;;
5813;SDS011;2933;52.302;8.134;2024-01-07T09:47:41;2.30;;;2.20;;
5813;SDS011;2933;52.302;8.134;2024-01-07T09:52:44;7.33;;;3.77;;
5813;SDS011;2933;52.302;8.134;2024-01-07T09:57:49;2.60;;;2.00;;
5813;SDS011;2933;52.302;8.134;2024-01-07T10:02:50;2.70;;;2.50;;
5813;SDS011;2933;52.302;8.134;2024-01-07T10:07:52;3.57;;;2.43;;
5813;SDS011;2933;52.302;8.134;2024-01-07T10:12:58;3.13;;;2.13;;
5813;SDS011;2933;52.302;8.134;2024-01-07T10:18:02;2.57;;;2.40;;
5813;SDS011;2933;52.302;8.134;2024-01-07T10:23:05;4.10;;;2.03;;
5813;SDS011;2933;52.302;8.134;2024-01-07T10:28:09;2.70;;;2.07;;
5813;SDS011;2933;52.302;8.134;2024-01-07T10:33:11;1.80;;;1.70;;
5813;SDS011;2933;52.302;8.134;2024-01-07T10:38:13;1.73;;;1.60;;
5813;SDS011;2933;52.302;8.134;2024-01-07T10:43:16;1.60;;;1.50;;
5813;SDS011;2933;52.302;8.134;2024-01-07T10:48:18;2.10;;;2.00;;
5813;SDS011;2933;52.302;8.134;2024-01-07T10:53:21;1.70;;;1.60;;
5813;SDS011;2933;52.302;8.134;2024-01-07T10:58:25;4.27;;;2.90;;
5813;SDS011;2933;52.302;8.134;2024-01-07T11:03:28;5.00;;;2.53;;
5813;SDS011;2933;52.302;8.134;2024-01-07T11:08:39;2.20;;;1.80;;
5813;SDS011;2933;52.302;8.134;2024-01-07T11:13:45;1.80;;;1.57;;
5813;SDS011;2933;52.302;8.134;2024-01-07T11:18:49;2.63;;;1.87;;
5813;SDS011;2933;52.302;8.134;2024-01-07T11:23:52;1.70;;;1.60;;
5813;SDS011;2933;52.302;8.134;2024-01-07T11:28:56;2.27;;;2.10;;
5813;SDS011;2933;52.302;8.134;2024-01-07T11:33:58;3.10;;;2.00;;
5813;SDS011;2933;52.302;8.134;2024-01-07T11:38:59;2.23;;;2.13;;
5813;SDS011;2933;52.302;8.134;2024-01-07T11:44:05;3.00;;;1.80;;
5813;SDS011;2933;52.302;8.134;2024-01-07T11:49:08;2.23;;;1.60;;
5813;SDS011;2933;52.302;8.134;2024-01-07T11:54:10;1.80;;;1.70;;
5813;SDS011;2933;52.302;8.134;2024-01-07T11:59:13;1.67;;;1.57;;
5813;SDS011;2933;52.302;8.134;2024-01-07T12:04:15;1.93;;;1.80;;
5813;SDS011;2933;52.302;8.134;2024-01-07T12:09:16;1.90;;;1.80;;
5813;SDS011;2933;52.302;8.134;2024-01-07T12:14:19;2.80;;;1.83;;
5813;SDS011;2933;52.302;8.134;2024-01-07T12:19:21;3.67;;;1.57;;
5813;SDS011;2933;52.302;8.134;2024-01-07T12:24:24;3.90;;;2.23;;
5813;SDS011;2933;52.302;8.134;2024-01-07T12:29:27;2.57;;;2.47;;
5813;SDS011;2933;52.302;8.134;2024-01-07T12:34:29;2.10;;;2.00;;
5813;SDS011;2933;52.302;8.134;2024-01-07T12:39:31;2.10;;;1.90;;
5813;SDS011;2933;52.302;8.134;2024-01-07T12:44:34;1.50;;;1.50;;
5813;SDS011;2933;52.302;8.134;2024-01-07T12:49:37;1.90;;;1.80;;
5813;SDS011;2933;52.302;8.134;2024-01-07T12:54:39;3.90;;;2.10;;
5813;SDS011;2933;52.302;8.134;2024-01-07T12:59:42;1.80;;;1.70;;
5813;SDS011;2933;52.302;8.134;2024-01-07T13:04:44;2.47;;;2.27;;
5813;SDS011;2933;52.302;8.134;2024-01-07T13:09:46;4.20;;;2.63;;
5813;SDS011;2933;52.302;8.134;2024-01-07T13:14:49;9.60;;;4.90;;
5813;SDS011;2933;52.302;8.134;2024-01-07T13:19:50;5.43;;;2.43;;
5813;SDS011;2933;52.302;8.134;2024-01-07T13:24:53;6.00;;;3.63;;
5813;SDS011;2933;52.302;8.134;2024-01-07T13:29:56;6.57;;;2.30;;
5813;SDS011;2933;52.302;8.134;2024-01-07T13:34:58;2.13;;;1.93;;
5813;SDS011;2933;52.302;8.134;2024-01-07T13:39:59;1.87;;;1.77;;
5813;SDS011;2933;52.302;8.134;2024-01-07T13:45:05;7.27;;;2.30;;
5813;SDS011;2933;52.302;8.134;2024-01-07T13:50:07;1.90;;;1.80;;
5813;SDS011;2933;52.302;8.134;2024-01-07T13:55:10;4.77;;;2.30;;
5813;SDS011;2933;52.302;8.134;2024-01-07T14:00:15;2.00;;;1.80;;
5813;SDS011;2933;52.302;8.134;2024-01-07T14:05:18;3.17;;;2.40;;
5813;SDS011;2933;52.302;8.134;2024-01-07T14:10:20;5.20;;;3.40;;
5813;SDS011;2933;52.302;8.134;2024-01-07T14:15:23;5.53;;;2.90;;
5813;SDS011;2933;52.302;8.134;2024-01-07T14:20:25;2.50;;;2.30;;
5813;SDS011;2933;52.302;8.134;2024-01-07T14:25:28;2.40;;;2.30;;
5813;SDS011;2933;52.302;8.134;2024-01-07T14:30:32;2.87;;;2.60;;
5813;SDS011;2933;52.302;8.134;2024-01-07T14:35:34;2.67;;;2.57;;
5813;SDS011;2933;52.302;8.134;2024-01-07T14:40:35;2.93;;;2.70;;
5813;SDS011;2933;52.302;8.134;2024-01-07T14:45:38;4.00;;;2.43;;
5813;SDS011;2933;52.302;8.134;2024-01-07T14:50:40;2.77;;;2.57;;
5813;SDS011;2933;52.302;8.134;2024-01-07T14:55:44;6.17;;;2.37;;
5813;SDS011;2933;52.302;8.134;2024-01-07T15:00:47;4.20;;;2.33;;
5813;SDS011;2933;52.302;8.134;2024-01-07T15:05:49;2.03;;;1.70;;
5813;SDS011;2933;52.302;8.134;2024-01-07T15:10:50;7.60;;;2.00;;
5813;SDS011;2933;52.302;8.134;2024-01-07T15:15:53;9.63;;;5.03;;
5813;SDS011;2933;52.302;8.134;2024-01-07T15:20:55;4.50;;;3.27;;
5813;SDS011;2933;52.302;8.134;2024-01-07T15:25:57;6.33;;;2.73;;
5813;SDS011;2933;52.302;8.134;2024-01-07T15:31:00;6.40;;;2.50;;
5813;SDS011;2933;52.302;8.134;2024-01-07T15:36:03;2.33;;;2.20;;
5813;SDS011;2933;52.302;8.134;2024-01-07T15:41:06;5.70;;;2.07;;
5813;SDS011;2933;52.302;8.134;2024-01-07T15:46:13;7.83;;;2.20;;
5813;SDS011;2933;52.302;8.134;2024-01-07T15:51:14;3.57;;;2.60;;
5813;SDS011;2933;52.302;8.134;2024-01-07T15:56:16;5.30;;;2.87;;
5813;SDS011;2933;52.302;8.134;2024-01-07T16:01:21;2.50;;;2.37;;
5813;SDS011;2933;52.302;8.134;2024-01-07T16:06:22;2.70;;;2.20;;
5813;SDS011;2933;52.302;8.134;2024-01-07T16:11:24;7.90;;;4.17;;
5813;SDS011;2933;52.302;8.134;2024-01-07T16:16:28;9.53;;;3.07;;
5813;SDS011;2933;52.302;8.134;2024-01-07T16:21:31;3.13;;;2.83;;
5813;SDS011;2933;52.302;8.134;2024-01-07T16:26:33;4.30;;;3.37;;
5813;SDS011;2933;52.302;8.134;2024-01-07T16:31:36;2.80;;;2.60;;
5813;SDS011;2933;52.302;8.134;2024-01-07T16:36:40;2.37;;;2.23;;
5813;SDS011;2933;52.302;8.134;2024-01-07T16:41:42;11.77;;;3.80;;
5813;SDS011;2933;52.302;8.134;2024-01-07T16:46:45;2.87;;;2.60;;
5813;SDS011;2933;52.302;8.134;2024-01-07T16:51:47;2.90;;;2.70;;
5813;SDS011;2933;52.302;8.134;2024-01-07T16:56:48;5.10;;;2.63;;
5813;SDS011;2933;52.302;8.134;2024-01-07T17:01:52;2.93;;;2.73;;
5813;SDS011;2933;52.302;8.134;2024-01-07T17:06:55;3.87;;;3.50;;
5813;SDS011;2933;52.302;8.134;2024-01-07T17:11:57;3.27;;;2.93;;
5813;SDS011;2933;52.302;8.134;2024-01-07T17:17:00;5.57;;;4.10;;
5813;SDS011;2933;52.302;8.134;2024-01-07T17:22:01;9.57;;;4.77;;
5813;SDS011;2933;52.302;8.134;2024-01-07T17:27:03;4.57;;;3.80;;
5813;SDS011;2933;52.302;8.134;2024-01-07T17:32:07;7.30;;;3.87;;
5813;SDS011;2933;52.302;8.134;2024-01-07T17:37:11;3.03;;;2.83;;
5813;SDS011;2933;52.302;8.134;2024-01-07T17:42:13;3.53;;;2.67;;
5813;SDS011;2933;52.302;8.134;2024-01-07T17:47:16;4.20;;;2.83;;
5813;SDS011;2933;52.302;8.134;2024-01-07T17:52:18;4.60;;;3.33;;
5813;SDS011;2933;52.302;8.134;2024-01-07T17:57:19;3.13;;;2.70;;
5813;SDS011;2933;52.302;8.134;2024-01-07T18:02:23;3.17;;;2.70;;
5813;SDS011;2933;52.302;8.134;2024-01-07T18:07:24;2.70;;;2.50;;
5813;SDS011;2933;52.302;8.134;2024-01-07T18:12:26;6.53;;;2.70;;
5813;SDS011;2933;52.302;8.134;2024-01-07T18:17:31;2.30;;;2.20;;
5813;SDS011;2933;52.302;8.134;2024-01-07T18:22:34;3.00;;;2.33;;
5813;SDS011;2933;52.302;8.134;2024-01-07T18:27:36;4.70;;;2.20;;
5813;SDS011;2933;52.302;8.134;2024-01-07T18:32:40;6.93;;;2.93;;
5813;SDS011;2933;52.302;8.134;2024-01-07T18:37:42;8.43;;;2.67;;
5813;SDS011;2933;52.302;8.134;2024-01-07T18:42:46;5.47;;;4.30;;
5813;SDS011;2933;52.302;8.134;2024-01-07T18:47:50;14.53;;;4.40;;
5813;SDS011;2933;52.302;8.134;2024-01-07T18:52:54;9.90;;;4.00;;
5813;SDS011;2933;52.302;8.134;2024-01-07T18:57:56;3.33;;;2.90;;
5813;SDS011;2933;52.302;8.134;2024-01-07T19:02:59;4.70;;;3.03;;
5813;SDS011;2933;52.302;8.134;2024-01-07T19:08:02;2.60;;;2.07;;
5813;SDS011;2933;52.302;8.134;2024-01-07T19:13:05;3.23;;;2.13;;
5813;SDS011;2933;52.302;8.134;2024-01-07T19:18:09;3.53;;;2.43;;
5813;SDS011;2933;52.302;8.134;2024-01-07T19:23:11;2.50;;;1.67;;
5813;SDS011;2933;52.302;8.134;2024-01-07T19:28:12;2.40;;;1.87;;
5813;SDS011;2933;52.302;8.134;2024-01-07T19:33:18;3.57;;;2.63;;
5813;SDS011;2933;52.302;8.134;2024-01-07T19:38:21;7.13;;;2.80;;
5813;SDS011;2933;52.302;8.134;2024-01-07T19:43:23;2.70;;;2.27;;
5813;SDS011;2933;52.302;8.134;2024-01-07T19:48:26;4.27;;;2.80;;
5813;SDS011;2933;52.302;8.134;2024-01-07T19:53:28;12.80;;;7.00;;
5813;SDS011;2933;52.302;8.134;2024-01-07T19:58:30;5.40;;;3.50;;
5813;SDS011;2933;52.302;8.134;2024-01-07T20:03:33;6.20;;;2.97;;
5813;SDS011;2933;52.302;8.134;2024-01-07T20:08:34;4.00;;;3.50;;
5813;SDS011;2933;52.302;8.134;2024-01-07T20:13:36;3.40;;;2.80;;
5813;SDS011;2933;52.302;8.134;2024-01-07T20:18:39;3.20;;;2.87;;
5813;SDS011;2933;52.302;8.134;2024-01-07T20:23:41;5.40;;;3.40;;
5813;SDS011;2933;52.302;8.134;2024-01-07T20:28:42;7.73;;;4.37;;
5813;SDS011;2933;52.302;8.134;2024-01-07T20:33:45;3.10;;;2.83;;
5813;SDS011;2933;52.302;8.134;2024-01-07T20:38:47;3.27;;;2.60;;
5813;SDS011;2933;52.302;8.134;2024-01-07T20:43:49;4.37;;;2.80;;
5813;SDS011;2933;52.302;8.134;2024-01-07T20:48:52;6.03;;;2.67;;
5813;SDS011;2933;52.302;8.134;2024-01-07T20:53:54;2.90;;;2.70;;
5813;SDS011;2933;52.302;8.134;2024-01-07T20:58:55;3.30;;;2.37;;
5813;SDS011;2933;52.302;8.134;2024-01-07T21:03:59;5.47;;;3.27;;
5813;SDS011;2933;52.302;8.134;2024-01-07T21:09:01;2.57;;;2.43;;
5813;SDS011;2933;52.302;8.134;2024-01-07T21:14:03;2.20;;;2.10;;
5813;SDS011;2933;52.302;8.134;2024-01-07T21:19:06;6.67;;;2.20;;
5813;SDS011;2933;52.302;8.134;2024-01-07T21:24:08;5.00;;;3.97;;
5813;SDS011;2933;52.302;8.134;2024-01-07T21:29:12;5.47;;;3.37;;
5813;SDS011;2933;52.302;8.134;2024-01-07T21:34:15;3.93;;;3.47;;
5813;SDS011;2933;52.302;8.134;2024-01-07T21:39:17;5.00;;;4.43;;
5813;SDS011;2933;52.302;8.134;2024-01-07T21:44:19;2.73;;;2.50;;
5813;SDS011;2933;52.302;8.134;2024-01-07T21:49:23;3.07;;;2.80;;
5813;SDS011;2933;52.302;8.134;2024-01-07T21:54:24;4.40;;;3.40;;
5813;SDS011;2933;52.302;8.134;2024-01-07T21:59:26;2.80;;;2.60;;
5813;SDS011;2933;52.302;8.134;2024-01-07T22:04:29;2.50;;;2.10;;
5813;SDS011;2933;52.302;8.134;2024-01-07T22:09:31;3.47;;;2.67;;
5813;SDS011;2933;52.302;8.134;2024-01-07T22:14:33;3.80;;;2.47;;
5813;SDS011;2933;52.302;8.134;2024-01-07T22:19:36;3.00;;;2.80;;
5813;SDS011;2933;52.302;8.134;2024-01-07T22:24:39;3.20;;;2.67;;
5813;SDS011;2933;52.302;8.134;2024-01-07T22:29:40;3.13;;;2.63;;
5813;SDS011;2933;52.302;8.134;2024-01-07T22:34:43;3.07;;;2.87;;
5813;SDS011;2933;52.302;8.134;2024-01-07T22:39:45;2.67;;;2.47;;
5813;SDS011;2933;52.302;8.134;2024-01-07T22:44:48;3.50;;;2.60;;
5813;SDS011;2933;52.302;8.134;2024-01-07T22:49:51;3.30;;;2.83;;
5813;SDS011;2933;52.302;8.134;2024-01-07T22:54:52;2.33;;;2.20;;
5813;SDS011;2933;52.302;8.134;2024-01-07T22:59:54;3.03;;;2.70;;
5813;SDS011;2933;52.302;8.134;2024-01-07T23:04:58;3.20;;;2.53;;
5813;SDS011;2933;52.302;8.134;2024-01-07T23:10:00;3.03;;;2.83;;
5813;SDS011;2933;52.302;8.134;2024-01-07T23:15:02;3.53;;;3.17;;
5813;SDS011;2933;52.302;8.134;2024-01-07T23:20:06;3.20;;;2.33;;
5813;SDS011;2933;52.302;8.134;2024-01-07T23:25:09;2.60;;;2.00;;
5813;SDS011;2933;52.302;8.134;2024-01-07T23:30:11;5.60;;;2.10;;
5813;SDS011;2933;52.302;8.134;2024-01-07T23:35:14;2.80;;;2.60;;
5813;SDS011;2933;52.302;8.134;2024-01-07T23:40:16;7.03;;;2.73;;
5813;SDS011;2933;52.302;8.134;2024-01-07T23:45:18;3.33;;;3.13;;
5813;SDS011;2933;52.302;8.134;2024-01-07T23:50:21;3.13;;;2.93;;
5813;SDS011;2933;52.302;8.134;2024-01-07T23:55:22;5.13;;;3.07;;
